Terminal Aerodrome Forecast
Issued by NWS

Home | Current Version | Previous Version | Text Only | Print | Product List | Glossary On
Versions: 1 2 3 4 5 6 7 8 9 10 11 12 13 14 15 16 17 18 19 20 21 22 23 24 25 26 27 28 29 30 31 32 33 34 35
000
FTUS41 KBOX 041734
TAFBAF
TAF
KBAF 041734Z 0418/0518 06006KT P6SM VCSH OVC015
     FM042000 06007KT P6SM -SHRA OVC015
     FM042300 05008KT 5SM -RA BR OVC010
     FM050300 04005KT P6SM -RA OVC008
     FM050600 04008KT 5SM -DZ BR VCSH OVC008
     FM051400 03009KT 5SM -DZ BR VCSH OVC015
     FM051700 03009KT P6SM -DZ VCSH OVC015=

USA.gov is the U.S. government's official web portal to all federal, state and local government web resources and services.